Time;durP1;ratioP1;P1;durP2;ratioP2;P2;SDS_P1;SDS_P2;PMS_P1;PMS_P2;Temp;Humidity;BMP_temperature;BMP_pressure;BME280_temperature;BME280_humidity;BME280_pressure;Samples;Min_cycle;Max_cycle;Signal;HPM_P1;HPM_P2
2022/06/21 00:01:04;;;;;;;;;;;20.70;69.10;;;20.03;64.22;95639.06;4209042;33;19902;-86
2022/06/21 00:03:33;;;;;;;;;;;20.70;69.10;;;20.02;63.98;95635.47;4232613;33;20040;-85
2022/06/21 00:06:01;;;;;;;;;;;20.70;69.10;;;20.02;64.16;95637.44;4232774;33;20129;-85
2022/06/21 00:08:32;;;;;;;;;;;20.70;69.10;;;19.99;64.10;95630.63;4259170;33;19909;-85
2022/06/21 00:11:01;;;;;;;;;;;20.70;69.10;;;20.01;64.26;95631.06;4237526;33;20134;-85
2022/06/21 00:13:31;;;;;;;;;;;20.70;69.20;;;20.02;64.21;95631.88;4261971;33;20129;-85
2022/06/21 00:16:04;;;;;;;;;;;20.70;69.10;;;20.01;63.98;95630.25;4261056;33;19910;-85
2022/06/21 00:18:34;;;;;;;;;;;20.70;69.10;;;20.02;64.20;95629.09;4260712;33;20213;-86
2022/06/21 00:21:03;;;;;;;;;;;20.70;69.10;;;20.01;64.05;95633.84;4261015;33;20019;-86
2022/06/21 00:23:33;;;;;;;;;;;20.70;69.20;;;20.00;63.90;95632.25;4237276;33;19917;-86
2022/06/21 00:26:01;;;;;;;;;;;20.70;69.20;;;20.00;64.23;95636.97;4261090;33;20214;-86
2022/06/21 00:28:30;;;;;;;;;;;20.70;69.20;;;20.01;64.13;95635.81;4236637;33;20330;-86
2022/06/21 00:30:59;;;;;;;;;;;20.70;69.20;;;20.00;64.07;95628.63;4261017;33;20056;-86
2022/06/21 00:33:29;;;;;;;;;;;20.60;69.00;;;20.00;63.63;95628.63;4260981;33;19909;-85
2022/06/21 00:36:00;;;;;;;;;;;20.70;69.10;;;20.00;63.85;95634.19;4260804;33;20176;-86
2022/06/21 00:38:31;;;;;;;;;;;20.60;68.90;;;20.00;63.95;95628.63;4260355;33;19902;-86
2022/06/21 00:41:02;;;;;;;;;;;20.60;68.90;;;19.99;63.86;95632.56;4237344;33;20045;-85
2022/06/21 00:43:33;;;;;;;;;;;20.60;68.90;;;19.99;63.92;95633.41;4239529;33;20042;-85
2022/06/21 00:46:02;;;;;;;;;;;20.60;68.90;;;19.98;64.27;95623.44;4239492;33;19980;-85
2022/06/21 00:48:34;;;;;;;;;;;20.60;68.90;;;19.99;64.16;95621.47;4263805;33;20303;-85
2022/06/21 00:51:08;;;;;;;;;;;20.60;68.90;;;19.99;64.33;95613.13;4264222;33;19902;-85
2022/06/21 00:53:40;;;;;;;;;;;20.60;68.90;;;19.99;64.08;95615.91;4263336;33;19908;-85
2022/06/21 00:56:14;;;;;;;;;;;20.60;68.90;;;19.98;63.86;95614.28;4264147;33;20295;-85
2022/06/21 00:58:42;;;;;;;;;;;20.60;68.90;;;19.98;63.82;95608.72;4262662;33;20120;-86
2022/06/21 01:01:16;;;;;;;;;;;20.60;68.80;;;19.97;63.76;95612.66;4263108;33;20019;-84
2022/06/21 01:03:48;;;;;;;;;;;20.60;68.80;;;19.97;63.79;95613.47;4239400;33;19925;-84
2022/06/21 01:06:19;;;;;;;;;;;20.60;68.90;;;19.98;64.19;95614.28;4239237;33;20109;-85
2022/06/21 01:08:50;;;;;;;;;;;20.60;68.90;;;19.96;64.21;95613.81;4262680;33;19902;-85
2022/06/21 01:11:22;;;;;;;;;;;20.60;68.80;;;19.96;63.84;95614.63;4262982;33;19925;-85
2022/06/21 01:13:52;;;;;;;;;;;20.60;68.80;;;19.97;63.82;95612.66;4263150;33;20704;-85
2022/06/21 01:16:22;;;;;;;;;;;20.60;68.70;;;19.96;64.16;95613.81;4262945;33;20105;-85
2022/06/21 01:18:52;;;;;;;;;;;20.60;68.80;;;19.96;63.97;95611.03;4257457;33;20091;-85
2022/06/21 01:21:21;;;;;;;;;;;20.60;68.80;;;19.95;63.88;95607.47;4234389;33;19902;-85
2022/06/21 01:23:58;;;;;;;;;;;20.60;68.80;;;19.95;64.11;95599.13;4235330;33;19909;-85
2022/06/21 01:26:45;;;;;;;;;;;20.60;68.80;;;19.95;63.67;95606.63;4234149;33;19958;-85
2022/06/21 01:29:18;;;;;;;;;;;20.60;68.80;;;19.95;64.03;95606.63;4234638;33;20478;-85
2022/06/21 01:31:48;;;;;;;;;;;20.60;68.80;;;19.93;63.79;95607.81;4210700;33;20289;-84
2022/06/21 01:34:18;;;;;;;;;;;20.60;68.70;;;19.93;63.73;95599.47;4229764;33;19901;-86
2022/06/21 01:36:48;;;;;;;;;;;20.60;68.80;;;19.93;63.62;95591.16;4238746;33;20040;-85
2022/06/21 01:39:21;;;;;;;;;;;20.60;68.70;;;19.93;63.81;95585.59;4262347;33;19902;-84
2022/06/21 01:41:53;;;;;;;;;;;20.60;68.60;;;19.92;64.04;95588.69;4263691;33;20147;-85
2022/06/21 01:44:24;;;;;;;;;;;20.60;68.70;;;19.93;63.91;95596.69;4238927;33;19910;-85
2022/06/21 01:46:52;;;;;;;;;;;20.60;68.60;;;19.93;63.91;95598.66;4262584;33;19925;-86
2022/06/21 01:49:24;;;;;;;;;;;20.60;68.70;;;19.92;63.71;95595.06;4238107;33;19906;-85
2022/06/21 01:51:56;;;;;;;;;;;20.60;68.70;;;19.93;64.05;95598.66;4262571;33;19953;-85
2022/06/21 01:54:27;;;;;;;;;;;20.60;68.80;;;19.92;63.96;95595.06;4239021;33;19901;-84
2022/06/21 01:56:57;;;;;;;;;;;20.50;68.70;;;19.92;63.81;95597.84;4263481;33;19916;-85
2022/06/21 01:59:28;;;;;;;;;;;20.60;68.80;;;19.92;63.80;95602.59;4238181;33;19977;-85
2022/06/21 02:02:01;;;;;;;;;;;20.50;68.80;;;19.90;63.61;95591.84;4238638;33;19902;-85
2022/06/21 02:04:33;;;;;;;;;;;20.60;68.70;;;19.91;63.71;95593.47;4238835;33;20094;-85
2022/06/21 02:07:04;;;;;;;;;;;20.50;68.70;;;19.91;63.91;95589.84;4263381;33;19902;-85
2022/06/21 02:09:36;;;;;;;;;;;20.50;68.60;;;19.90;63.81;95586.28;4238150;33;20061;-85
2022/06/21 02:12:10;;;;;;;;;;;20.50;68.60;;;19.91;63.64;95587.06;4262196;33;19902;-86
2022/06/21 02:14:42;;;;;;;;;;;20.50;68.60;;;19.89;63.68;95573.53;4257388;33;19909;-86
2022/06/21 02:17:16;;;;;;;;;;;20.50;68.60;;;19.89;63.72;95590.22;4281145;33;19902;-85
2022/06/21 02:19:46;;;;;;;;;;;20.50;68.60;;;19.89;63.90;95587.44;4263033;33;19902;-85
2022/06/21 02:22:18;;;;;;;;;;;20.50;68.60;;;19.88;63.68;95580.25;4238463;33;19902;-84
2022/06/21 02:24:47;;;;;;;;;;;20.50;68.60;;;19.88;63.56;95576.69;4262285;33;20237;-85
2022/06/21 02:27:18;;;;;;;;;;;20.50;68.60;;;19.88;63.76;95582.22;4238008;33;19901;-85
2022/06/21 02:29:51;;;;;;;;;;;20.50;68.50;;;19.88;63.71;95571.91;4262116;33;19910;-84
2022/06/21 02:32:25;;;;;;;;;;;20.50;68.50;;;19.88;63.85;95571.91;4237556;33;19902;-85
2022/06/21 02:34:57;;;;;;;;;;;20.50;68.60;;;19.88;63.67;95571.91;4261464;33;20039;-85
2022/06/21 02:37:27;;;;;;;;;;;20.50;68.60;;;19.89;63.68;95575.50;4261597;33;20572;-85
2022/06/21 02:39:56;;;;;;;;;;;20.50;68.50;;;19.88;63.52;95563.59;4238343;33;20076;-85
2022/06/21 02:42:29;;;;;;;;;;;20.50;68.50;;;19.88;63.82;95560.81;4261965;33;20288;-86
2022/06/21 02:45:01;;;;;;;;;;;20.50;68.50;;;19.87;63.71;95567.53;4262286;33;19910;-85
2022/06/21 02:47:32;;;;;;;;;;;20.50;68.50;;;19.88;63.36;95571.91;4237485;33;20132;-85
2022/06/21 02:50:03;;;;;;;;;;;20.50;68.50;;;19.87;63.59;95564.75;4238152;33;20221;-85
2022/06/21 02:52:36;;;;;;;;;;;20.50;68.40;;;19.87;63.31;95561.97;4261860;33;19906;-85
2022/06/21 02:55:28;;;;;;;;;;;20.50;68.40;;;19.88;63.44;95549.69;4261890;33;20157;-86
2022/06/21 02:58:01;;;;;;;;;;;20.50;68.40;;;19.88;63.46;95551.69;4237525;33;20125;-86
2022/06/21 03:00:29;;;;;;;;;;;20.50;68.30;;;19.87;63.30;95559.19;4237987;33;20075;-85
2022/06/21 03:02:59;;;;;;;;;;;20.50;68.30;;;19.87;63.19;95552.84;4237890;33;19902;-86
2022/06/21 03:05:29;;;;;;;;;;;20.50;68.30;;;19.88;63.39;95549.69;4237718;33;19908;-85
2022/06/21 03:07:59;;;;;;;;;;;20.50;68.30;;;19.89;63.35;95551.31;4237622;33;19909;-84
2022/06/21 03:10:30;;;;;;;;;;;20.50;68.30;;;19.88;63.52;95538.59;4261779;33;20088;-85
2022/06/21 03:13:02;;;;;;;;;;;20.50;68.30;;;19.89;63.40;95545.75;4238062;33;19909;-85
2022/06/21 03:15:30;;;;;;;;;;;20.50;68.30;;;19.89;63.45;95545.75;4237821;33;20130;-85
2022/06/21 03:18:02;;;;;;;;;;;20.50;68.30;;;19.89;63.40;95537.44;4237128;33;19905;-85
2022/06/21 03:20:31;;;;;;;;;;;20.50;68.40;;;19.91;63.40;95534.28;4237999;33;20578;-85
2022/06/21 03:23:00;;;;;;;;;;;20.60;68.40;;;19.91;63.64;95540.69;4261639;33;20037;-85
2022/06/21 03:25:31;;;;;;;;;;;20.60;68.40;;;19.92;63.42;95547.03;4262571;33;19909;-85
2022/06/21 03:28:02;;;;;;;;;;;20.60;68.40;;;19.92;63.71;95528.41;4260845;33;19902;-85
2022/06/21 03:30:33;;;;;;;;;;;20.60;68.50;;;19.93;63.54;95518.09;4261623;33;19902;-85
2022/06/21 03:33:02;;;;;;;;;;;20.60;68.40;;;19.94;63.68;95522.50;4261433;33;20341;-85
2022/06/21 03:35:32;;;;;;;;;;;20.60;68.40;;;19.94;63.84;95514.16;4232985;33;20139;-86
2022/06/21 03:38:01;;;;;;;;;;;20.60;68.50;;;19.96;63.76;95519.34;4232344;33;19910;-85
2022/06/21 03:43:23;;;;;;;;;;;20.60;68.60;;;19.98;63.49;95503.16;4256604;33;19902;-85
2022/06/21 03:45:52;;;;;;;;;;;20.60;68.70;;;19.99;63.96;95508.38;4244814;33;19909;-86
2022/06/21 03:48:30;;;;;;;;;;;20.60;68.80;;;20.00;63.88;95496.09;4236861;33;19909;-85
2022/06/21 03:51:02;;;;;;;;;;;20.70;68.80;;;20.03;63.88;95505.72;4237510;33;19909;-85
2022/06/21 03:53:34;;;;;;;;;;;20.70;68.90;;;20.03;63.90;95505.72;4261430;33;19901;-85
2022/06/21 03:56:06;;;;;;;;;;;20.70;69.00;;;20.03;64.07;95505.72;4237588;33;20158;-85
2022/06/21 03:58:45;;;;;;;;;;;20.70;68.90;;;20.05;64.03;95506.16;4260463;33;20030;-85
2022/06/21 04:01:17;;;;;;;;;;;20.70;68.80;;;20.05;64.04;95515.31;4261390;33;19926;-86
2022/06/21 04:03:48;;;;;;;;;;;20.70;68.80;;;20.06;64.16;95516.13;4237656;33;20130;-86
2022/06/21 04:06:20;;;;;;;;;;;20.70;68.90;;;20.06;64.01;95519.69;4260951;33;19909;-86
2022/06/21 04:08:52;;;;;;;;;;;20.70;68.90;;;20.07;64.14;95518.53;4260711;33;19909;-86
2022/06/21 04:11:23;;;;;;;;;;;20.80;68.90;;;20.11;64.08;95520.63;4262213;33;20125;-86
2022/06/21 04:13:56;;;;;;;;;;;20.80;69.00;;;20.14;64.10;95512.41;4262046;33;20432;-86
2022/06/21 04:16:30;;;;;;;;;;;20.80;69.10;;;20.14;64.39;95517.97;4261696;33;19985;-86
2022/06/21 04:19:01;;;;;;;;;;;20.80;69.10;;;20.17;64.32;95524.78;4263885;33;19902;-85
2022/06/21 04:21:38;;;;;;;;;;;20.80;69.10;;;20.17;64.57;95517.28;4239893;33;20219;-86
2022/06/21 04:24:14;;;;;;;;;;;20.80;69.10;;;20.19;64.42;95517.72;4263769;33;20209;-86
2022/06/21 04:26:47;;;;;;;;;;;20.80;69.10;;;20.21;63.96;95511.81;4239639;33;20099;-85
2022/06/21 04:29:21;;;;;;;;;;;20.90;68.70;;;20.22;63.73;95508.66;4262971;33;20106;-86
2022/06/21 04:31:52;;;;;;;;;;;20.90;68.60;;;20.26;63.99;95507.97;4263571;33;20092;-85
2022/06/21 04:34:23;;;;;;;;;;;20.90;68.90;;;20.27;63.88;95513.19;4263514;33;20071;-85
2022/06/21 04:36:54;;;;;;;;;;;20.90;68.90;;;20.27;63.98;95515.16;4239350;33;20001;-84
2022/06/21 04:39:25;;;;;;;;;;;21.00;68.90;;;20.31;63.89;95510.53;4263082;33;19902;-86
2022/06/21 04:41:57;;;;;;;;;;;21.00;68.80;;;20.33;64.19;95522.09;4263200;33;20385;-85
2022/06/21 04:44:30;;;;;;;;;;;21.00;68.80;;;20.34;64.03;95516.19;4239868;33;19973;-87
2022/06/21 04:47:02;;;;;;;;;;;21.00;68.70;;;20.36;63.70;95519.44;4239544;33;20125;-86
2022/06/21 04:49:34;;;;;;;;;;;21.10;68.70;;;20.39;63.89;95523.47;4263853;33;19972;-85
2022/06/21 04:52:06;;;;;;;;;;;21.10;68.60;;;20.42;63.68;95524.72;4239903;33;19901;-85
2022/06/21 04:54:36;;;;;;;;;;;21.10;68.60;;;20.43;63.63;95524.41;4239516;33;20172;-86
2022/06/21 04:57:08;;;;;;;;;;;21.10;68.50;;;20.47;63.70;95524.50;4263061;33;19902;-85
2022/06/21 04:59:39;;;;;;;;;;;21.10;68.50;;;20.48;63.56;95523.34;4263098;33;20376;-85
2022/06/21 05:02:13;;;;;;;;;;;21.10;68.40;;;20.51;63.63;95529.00;4239384;33;20229;-84
2022/06/21 05:04:42;;;;;;;;;;;21.20;68.30;;;20.52;63.37;95533.41;4263417;33;19918;-85
2022/06/21 05:07:15;;;;;;;;;;;21.20;68.30;;;20.53;63.47;95529.47;4262840;33;19928;-85
2022/06/21 05:09:44;;;;;;;;;;;21.20;68.10;;;20.58;63.56;95535.94;4239181;33;20153;-86
2022/06/21 05:12:15;;;;;;;;;;;21.20;68.10;;;20.59;63.35;95541.16;4239185;33;19986;-86
2022/06/21 05:14:48;;;;;;;;;;;21.30;68.00;;;20.62;63.27;95539.63;4264323;33;19983;-86
2022/06/21 05:17:19;;;;;;;;;;;21.30;68.00;;;20.64;63.13;95538.13;4262475;33;19908;-85
2022/06/21 05:19:50;;;;;;;;;;;21.30;68.00;;;20.66;63.08;95529.41;4239292;33;19908;-86
2022/06/21 05:22:22;;;;;;;;;;;21.40;67.90;;;20.67;63.19;95529.06;4239107;33;19902;-85
2022/06/21 05:24:51;;;;;;;;;;;21.30;67.90;;;20.68;63.34;95536.25;4263218;33;19901;-85
2022/06/21 05:27:23;;;;;;;;;;;21.30;67.80;;;20.69;63.12;95525.94;4238098;33;20158;-85
2022/06/21 05:30:06;;;;;;;;;;;21.40;67.80;;;20.70;63.02;95524.78;4263124;33;20077;-85
2022/06/21 05:32:39;;;;;;;;;;;21.40;67.80;;;20.71;63.14;95534.75;4262867;33;20120;-85
2022/06/21 05:35:12;;;;;;;;;;;21.40;67.70;;;20.70;63.01;95527.56;4239197;33;20158;-86
2022/06/21 05:37:50;;;;;;;;;;;21.40;67.70;;;20.70;63.14;95528.34;4238406;33;19980;-86
2022/06/21 05:40:26;;;;;;;;;;;21.40;67.70;;;20.70;62.99;95516.44;4239232;33;19901;-85
2022/06/21 05:42:54;;;;;;;;;;;21.40;67.70;;;20.70;63.16;95527.56;4238896;33;19909;-85
2022/06/21 05:45:28;;;;;;;;;;;21.40;67.80;;;20.70;63.20;95517.22;4263614;33;19902;-85
2022/06/21 05:47:59;;;;;;;;;;;21.40;67.80;;;20.71;63.04;95526.41;4238319;33;20036;-84
2022/06/21 05:50:30;;;;;;;;;;;21.40;67.70;;;20.71;63.13;95523.63;4238968;33;19908;-85
2022/06/21 05:53:02;;;;;;;;;;;21.40;67.60;;;20.71;62.97;95523.63;4239113;33;19972;-85
2022/06/21 05:55:35;;;;;;;;;;;21.40;67.60;;;20.73;62.92;95531.59;4263552;33;20006;-85
2022/06/21 05:58:07;;;;;;;;;;;21.40;67.60;;;20.75;63.21;95518.97;4262074;33;19953;-85
2022/06/21 06:00:41;;;;;;;;;;;21.40;67.60;;;20.75;62.90;95527.31;4238573;33;19996;-85
2022/06/21 06:03:13;;;;;;;;;;;21.40;67.60;;;20.77;63.05;95527.78;4238650;33;19902;-85
2022/06/21 06:05:41;;;;;;;;;;;21.50;67.60;;;20.78;62.84;95523.84;4262457;33;19909;-85
2022/06/21 06:08:13;;;;;;;;;;;21.40;67.40;;;20.80;62.80;95529.88;4262731;33;19909;-85
2022/06/21 06:10:43;;;;;;;;;;;21.40;67.40;;;20.82;63.03;95529.50;4238729;33;19909;-86
2022/06/21 06:13:18;;;;;;;;;;;21.50;67.40;;;20.84;62.79;95522.44;4262190;33;19909;-85
2022/06/21 06:15:51;;;;;;;;;;;21.50;67.40;;;20.87;62.77;95534.00;4238714;33;20257;-86
2022/06/21 06:18:22;;;;;;;;;;;21.50;67.30;;;20.90;62.66;95536.09;4237937;33;19902;-86
2022/06/21 06:20:56;;;;;;;;;;;21.50;67.20;;;20.90;62.63;95533.28;4262353;33;19902;-86
2022/06/21 06:23:33;;;;;;;;;;;21.50;67.10;;;20.92;62.54;95539.31;4238413;33;19909;-86
2022/06/21 06:26:04;;;;;;;;;;;21.60;67.10;;;20.93;62.66;95546.50;4238477;33;20133;-86
2022/06/21 06:28:40;;;;;;;;;;;21.60;67.10;;;20.93;62.62;95538.94;4262406;33;20267;-85
2022/06/21 06:31:15;;;;;;;;;;;21.60;67.10;;;20.94;62.77;95537.78;4262367;33;20129;-85
2022/06/21 06:33:46;;;;;;;;;;;21.60;67.10;;;20.96;62.64;95545.81;4263045;33;20106;-85
2022/06/21 06:36:16;;;;;;;;;;;21.60;67.10;;;20.97;62.29;95539.06;4263056;33;20083;-85
2022/06/21 06:38:45;;;;;;;;;;;21.70;67.20;;;20.98;62.62;95543.44;4237088;33;19902;-85
2022/06/21 06:41:16;;;;;;;;;;;21.60;67.10;;;20.99;62.50;95539.50;4262254;33;19905;-85
2022/06/21 06:43:47;;;;;;;;;;;21.60;67.00;;;21.02;62.53;95544.38;4238338;33;19909;-85
2022/06/21 06:46:29;;;;;;;;;;;21.70;67.00;;;21.04;62.49;95542.03;4261957;33;19909;-85
2022/06/21 06:49:14;;;;;;;;;;;21.70;66.90;;;21.05;62.18;95540.06;4237454;33;19908;-86
2022/06/21 06:51:47;;;;;;;;;;;21.70;66.90;;;21.07;62.33;95535.78;4238359;33;19902;-86
2022/06/21 06:54:24;;;;;;;;;;;21.70;66.80;;;21.10;62.11;95535.06;4261754;33;19909;-85
2022/06/21 06:57:01;;;;;;;;;;;21.70;66.80;;;21.10;61.96;95546.22;4238233;33;19941;-85
2022/06/21 06:59:30;;;;;;;;;;;21.80;66.60;;;21.13;62.01;95533.53;4262458;33;19902;-85
2022/06/21 07:02:02;;;;;;;;;;;21.80;66.60;;;21.14;61.90;95530.41;4238131;33;20149;-86
2022/06/21 07:04:35;;;;;;;;;;;21.80;66.50;;;21.17;62.05;95530.84;4238024;33;19902;-85
2022/06/21 07:07:07;;;;;;;;;;;21.80;66.40;;;21.17;61.81;95528.91;4262009;33;20180;-86
2022/06/21 07:09:41;;;;;;;;;;;21.80;66.40;;;21.20;61.94;95532.94;4237769;33;20102;-86
2022/06/21 07:12:15;;;;;;;;;;;21.90;66.40;;;21.20;61.71;95522.59;4238093;33;20132;-86
2022/06/21 07:14:44;;;;;;;;;;;21.90;66.40;;;21.22;61.83;95528.63;4237890;33;19909;-85
2022/06/21 07:17:20;;;;;;;;;;;21.90;66.40;;;21.24;61.86;95522.69;4237649;33;19902;-86
2022/06/21 07:19:48;;;;;;;;;;;21.80;66.30;;;21.23;61.69;95532.22;4261377;33;19902;-86
2022/06/21 07:22:21;;;;;;;;;;;21.90;66.30;;;21.25;61.55;95529.88;4262779;33;20590;-85
2022/06/21 07:24:54;;;;;;;;;;;21.90;66.30;;;21.26;61.55;95531.50;4261473;33;20039;-85
2022/06/21 07:27:26;;;;;;;;;;;21.90;66.30;;;21.26;61.58;95525.94;4261109;33;20392;-86
2022/06/21 07:29:59;;;;;;;;;;;21.90;66.20;;;21.27;61.75;95533.13;4261630;33;19915;-87
2022/06/21 07:32:32;;;;;;;;;;;21.90;66.30;;;21.25;61.74;95525.13;4238020;33;20122;-85
2022/06/21 07:35:03;;;;;;;;;;;21.90;66.30;;;21.27;61.87;95530.31;4261308;33;19981;-86
2022/06/21 07:37:34;;;;;;;;;;;21.90;66.30;;;21.27;61.81;95527.53;4261976;33;19902;-84
2022/06/21 07:40:08;;;;;;;;;;;21.90;66.30;;;21.27;61.67;95528.38;4261465;33;20028;-86
2022/06/21 07:42:41;;;;;;;;;;;21.90;66.30;;;21.27;61.73;95521.97;4261603;33;20156;-86
2022/06/21 07:45:15;;;;;;;;;;;22.00;66.30;;;21.26;61.54;95525.94;4261253;33;20017;-86
2022/06/21 07:47:48;;;;;;;;;;;21.90;66.30;;;21.26;61.79;95521.19;4260990;33;19966;-85
2022/06/21 07:50:20;;;;;;;;;;;21.90;66.30;;;21.25;61.71;95521.53;4256991;33;19909;-86
2022/06/21 07:52:51;;;;;;;;;;;21.90;66.30;;;21.22;61.75;95516.69;4235294;33;20268;-85
2022/06/21 07:55:30;;;;;;;;;;;21.90;66.30;;;21.20;61.91;95522.59;4211772;33;19917;-87
2022/06/21 07:58:02;;;;;;;;;;;21.90;66.40;;;21.21;62.08;95513.06;4235835;33;19909;-85
2022/06/21 08:06:41;;;;;;;;;;;21.90;66.50;;;21.19;62.30;95520.19;4235168;33;19909;-85
2022/06/21 08:09:14;;;;;;;;;;;21.80;66.70;;;21.10;62.54;95518.38;4234657;33;20055;-86
2022/06/21 08:11:44;;;;;;;;;;;21.80;66.80;;;21.08;62.48;95520.69;4235227;33;20029;-86
2022/06/21 08:14:13;;;;;;;;;;;21.80;66.90;;;21.07;62.21;95535.78;4234996;33;19958;-85
2022/06/21 08:16:44;;;;;;;;;;;21.70;66.90;;;21.04;62.78;95530.13;4235220;33;20439;-86
2022/06/21 08:19:19;;;;;;;;;;;21.70;67.10;;;21.03;62.59;95528.50;4234840;33;19901;-85
2022/06/21 08:21:52;;;;;;;;;;;21.70;67.20;;;21.02;62.65;95536.03;4258825;33;20158;-86
2022/06/21 08:24:24;;;;;;;;;;;21.70;67.30;;;21.02;62.42;95536.03;4235158;33;19902;-86
2022/06/21 08:26:58;;;;;;;;;;;21.70;67.40;;;21.02;62.59;95538.81;4263491;33;20128;-86
2022/06/21 08:29:30;;;;;;;;;;;21.70;67.30;;;21.02;62.88;95538.81;4239117;33;19909;-86
2022/06/21 08:32:03;;;;;;;;;;;21.70;67.40;;;21.03;62.84;95551.56;4264511;33;19902;-86
2022/06/21 08:34:36;;;;;;;;;;;21.70;67.40;;;21.05;62.76;95543.66;4263605;33;20143;-86
2022/06/21 08:37:07;;;;;;;;;;;21.70;67.40;;;21.06;62.78;95538.91;4264494;33;19902;-85
2022/06/21 08:39:40;;;;;;;;;;;21.70;67.40;;;21.07;62.69;95552.47;4263279;33;20012;-85
2022/06/21 08:42:59;;;;;;;;;;;21.70;67.30;;;21.09;62.68;95555.72;4234958;33;19902;-85
2022/06/21 08:46:26;;;;;;;;;;;21.70;67.30;;;21.11;62.64;95552.56;4191565;33;19954;-86
2022/06/21 08:49:48;;;;;;;;;;;21.80;67.30;;;21.13;62.57;95545.47;4177882;33;19910;-85
2022/06/21 08:52:49;;;;;;;;;;;21.70;67.20;;;21.14;62.55;95552.66;4219294;33;20094;-86
2022/06/21 08:55:23;;;;;;;;;;;21.80;67.20;;;21.15;62.55;95568.19;4218243;33;20153;-86
2022/06/21 08:58:04;;;;;;;;;;;21.80;67.20;;;21.17;62.43;95558.69;4238819;33;20332;-86
2022/06/21 09:00:36;;;;;;;;;;;21.80;67.10;;;21.17;62.63;95561.47;4263189;33;20033;-86
2022/06/21 09:03:17;;;;;;;;;;;21.80;67.10;;;21.18;62.50;95569.44;4262532;33;19902;-86
2022/06/21 09:06:05;;;;;;;;;;;21.80;67.10;;;21.18;62.62;95560.31;4263031;33;20233;-85
2022/06/21 09:09:08;;;;;;;;;;;21.80;67.00;;;21.19;62.51;95575.84;4238886;33;20073;-86
2022/06/21 09:11:42;;;;;;;;;;;21.90;67.20;;;21.20;62.43;95574.69;4263980;33;19901;-86
2022/06/21 09:14:33;;;;;;;;;;;21.80;67.10;;;21.20;62.57;95563.56;4239290;33;19910;-86
2022/06/21 09:17:07;;;;;;;;;;;21.90;67.20;;;21.20;62.52;95564.34;4263111;33;20075;-86
2022/06/21 09:19:52;;;;;;;;;;;21.80;67.10;;;21.21;62.43;95579.88;4239289;33;19989;-86
2022/06/21 09:22:29;;;;;;;;;;;21.90;67.20;;;21.22;62.45;95575.16;4239151;33;19954;-86
2022/06/21 09:25:00;;;;;;;;;;;21.90;68.10;;;21.21;61.99;95568.75;4239056;33;19970;-85
2022/06/21 09:27:34;;;;;;;;;;;21.90;67.10;;;21.22;62.64;95575.16;4262461;33;20365;-85
2022/06/21 09:30:08;;;;;;;;;;;21.90;67.20;;;21.22;62.34;95569.56;4262887;33;19901;-85
2022/06/21 09:32:49;;;;;;;;;;;21.90;67.10;;;21.21;62.35;95565.97;4239039;33;19902;-86
2022/06/21 09:35:32;;;;;;;;;;;21.90;67.10;;;21.22;62.34;95562.03;4262862;33;20125;-86
2022/06/21 09:38:16;;;;;;;;;;;21.90;67.10;;;21.22;62.58;95564.81;4262363;33;20326;-84
2022/06/21 09:40:48;;;;;;;;;;;21.90;67.10;;;21.24;62.55;95575.56;4262949;33;19944;-87
2022/06/21 09:43:25;;;;;;;;;;;21.90;67.10;;;21.24;62.45;95572.78;4263843;33;19909;-87
2022/06/21 09:46:01;;;;;;;;;;;21.90;67.20;;;21.24;62.61;95567.22;4238851;33;19901;-86
2022/06/21 09:48:35;;;;;;;;;;;21.90;67.20;;;21.25;62.56;95568.84;4262282;33;20140;-87
2022/06/21 09:51:08;;;;;;;;;;;21.90;67.20;;;21.24;62.54;95561.66;4238716;33;20062;-86
2022/06/21 09:53:47;;;;;;;;;;;21.90;67.20;;;21.25;61.92;95563.28;4238907;33;19906;-86
2022/06/21 09:56:26;;;;;;;;;;;21.90;67.20;;;21.23;62.63;95552.50;4238775;33;19987;-85
2022/06/21 09:58:59;;;;;;;;;;;21.90;67.10;;;21.24;62.72;95554.13;4262032;33;19913;-86
2022/06/21 10:01:36;;;;;;;;;;;21.90;67.20;;;21.24;62.81;95550.53;4238680;33;20125;-85
2022/06/21 10:04:14;;;;;;;;;;;21.90;67.20;;;21.23;62.58;95548.94;4263531;33;19902;-85
2022/06/21 10:06:49;;;;;;;;;;;21.90;67.20;;;21.23;62.77;95548.94;4262269;33;20038;-85
2022/06/21 10:09:28;;;;;;;;;;;21.90;67.20;;;21.22;62.87;95536.97;4238222;33;19902;-85
2022/06/21 10:12:05;;;;;;;;;;;21.90;67.30;;;21.22;62.62;95541.75;4262380;33;19902;-85
2022/06/21 10:14:49;;;;;;;;;;;21.90;67.30;;;21.21;62.83;95540.13;4238662;33;19901;-86
2022/06/21 10:17:52;;;;;;;;;;;21.90;67.40;;;21.21;62.90;95537.34;4261632;33;19901;-85
2022/06/21 10:21:04;;;;;;;;;;;21.90;67.40;;;21.19;62.84;95532.09;4258534;33;20142;-86
2022/06/21 10:23:47;;;;;;;;;;;21.90;67.50;;;21.19;62.98;95520.19;4238638;33;19902;-86
2022/06/21 10:26:41;;;;;;;;;;;21.90;67.50;;;21.19;62.75;95525.75;4238376;33;20236;-86
2022/06/21 10:29:37;;;;;;;;;;;21.90;67.50;;;21.18;62.96;95524.13;4233232;33;20173;-86
2022/06/21 10:32:17;;;;;;;;;;;21.90;67.60;;;21.17;63.03;95525.28;4233493;33;19909;-86
2022/06/21 10:35:12;;;;;;;;;;;21.90;67.70;;;21.17;63.09;95522.50;4233659;33;19941;-86
2022/06/21 10:37:54;;;;;;;;;;;21.90;67.60;;;21.17;63.13;95528.06;4209457;33;19902;-85
2022/06/21 10:40:48;;;;;;;;;;;21.80;67.50;;;21.16;62.85;95524.50;4234718;33;19902;-85
2022/06/21 10:44:01;;;;;;;;;;;21.80;67.60;;;21.14;63.14;95519.25;4209982;33;19902;-86
2022/06/21 10:46:33;;;;;;;;;;;21.80;67.60;;;21.14;63.26;95513.69;4233445;33;19902;-85
2022/06/21 10:49:35;;;;;;;;;;;21.80;67.60;;;21.14;63.06;95508.13;4209382;33;19910;-86
2022/06/21 10:52:28;;;;;;;;;;;21.80;67.60;;;21.14;63.08;95502.56;4209812;33;19909;-86
2022/06/21 10:55:12;;;;;;;;;;;21.80;67.70;;;21.13;63.14;95506.50;4209845;33;19903;-85
2022/06/21 10:57:46;;;;;;;;;;;21.80;67.70;;;21.13;63.16;95495.38;4209421;33;19910;-86
2022/06/21 11:03:28;;;;;;;;;;;21.80;67.80;;;21.13;63.26;95489.00;4233119;33;20133;-86
2022/06/21 11:06:17;;;;;;;;;;;21.80;67.80;;;21.13;63.25;95489.81;4233286;33;20108;-86
2022/06/21 11:08:53;;;;;;;;;;;21.80;67.80;;;21.14;63.24;95497.00;4209153;33;20485;-85
2022/06/21 11:11:25;;;;;;;;;;;21.80;67.80;;;21.14;63.13;95497.00;4209827;33;20169;-86
2022/06/21 11:14:00;;;;;;;;;;;21.80;67.80;;;21.15;63.31;95497.81;4209762;33;19909;-86
2022/06/21 11:16:37;;;;;;;;;;;21.80;67.80;;;21.15;63.22;95479.13;4233263;33;19902;-85
2022/06/21 11:19:12;;;;;;;;;;;21.80;67.80;;;21.14;63.17;95488.66;4231580;33;19902;-87
2022/06/21 11:21:50;;;;;;;;;;;21.80;67.80;;;21.17;63.41;95501.06;4261554;33;20025;-87
2022/06/21 11:24:27;;;;;;;;;;;21.80;67.80;;;21.15;63.19;95481.91;4262725;33;20236;-86
2022/06/21 11:27:07;;;;;;;;;;;21.80;67.80;;;21.15;63.22;95476.34;4262000;33;19901;-85
2022/06/21 11:29:41;;;;;;;;;;;21.90;67.90;;;21.19;63.33;95484.00;4261461;33;20221;-86
2022/06/21 11:32:23;;;;;;;;;;;21.90;67.90;;;21.18;63.43;95472.03;4262466;33;19902;-86
2022/06/21 11:35:00;;;;;;;;;;;21.90;68.00;;;21.19;63.23;95470.88;4261697;33;20129;-86
2022/06/21 11:37:41;;;;;;;;;;;21.90;67.90;;;21.18;62.96;95469.25;4260814;33;20144;-86
2022/06/21 11:40:27;;;;;;;;;;;21.90;67.90;;;21.18;63.33;95465.69;4261700;33;20341;-85
2022/06/21 11:42:57;;;;;;;;;;;21.90;67.90;;;21.18;63.53;95465.69;4237551;33;19909;-86
2022/06/21 11:45:46;;;;;;;;;;;21.90;68.00;;;21.19;63.40;95473.66;4237708;33;19971;-86
2022/06/21 11:49:03;;;;;;;;;;;21.90;67.90;;;21.20;63.30;95471.69;4262011;33;19962;-86
2022/06/21 11:51:59;;;;;;;;;;;21.90;67.90;;;21.22;63.27;95463.81;4236111;33;19961;-86
2022/06/21 11:54:30;;;;;;;;;;;21.90;68.00;;;21.21;63.23;95479.69;4215721;33;20364;-86
2022/06/21 11:57:06;;;;;;;;;;;21.90;67.90;;;21.23;63.12;95484.91;4261258;33;20225;-86
2022/06/21 11:59:38;;;;;;;;;;;21.90;67.90;;;21.22;63.29;95484.09;4261022;33;20021;-85
2022/06/21 12:02:15;;;;;;;;;;;21.90;67.80;;;21.24;63.21;95486.50;4261075;33;20141;-86
2022/06/21 12:04:49;;;;;;;;;;;21.90;67.80;;;21.24;63.63;95484.53;4237460;33;19909;-86